Time;durP1;ratioP1;P1;durP2;ratioP2;P2;SDS_P1;SDS_P2;PMS_P1;PMS_P2;Temp;Humidity;BMP_temperature;BMP_pressure;BME280_temperature;BME280_humidity;BME280_pressure;Samples;Min_cycle;Max_cycle;Signal;HPM_P1;HPM_P2
2021/01/27 00:02:16;;;;;;;19.40;11.68;;;;;;;2.16;90.34;100167.19;5083894;28;20025;-65
2021/01/27 00:04:42;;;;;;;20.20;12.00;;;;;;;2.17;90.44;100163.59;5051972;28;20028;-65
2021/01/27 00:07:07;;;;;;;18.27;11.95;;;;;;;2.18;90.68;100170.63;5052077;28;20025;-65
2021/01/27 00:09:33;;;;;;;18.70;11.75;;;;;;;2.11;90.71;100153.41;5051701;28;20017;-65
2021/01/27 00:11:58;;;;;;;20.23;11.25;;;;;;;2.20;91.23;100174.00;5051860;28;20032;-65
2021/01/27 00:14:24;;;;;;;18.55;11.93;;;;;;;2.24;91.15;100178.22;5051905;28;20037;-65
2021/01/27 00:16:50;;;;;;;18.52;11.82;;;;;;;2.22;91.36;100180.09;5051948;28;20036;-65
2021/01/27 00:19:16;;;;;;;18.13;11.38;;;;;;;2.20;91.91;100176.66;5051599;28;20029;-65
2021/01/27 00:21:41;;;;;;;18.98;12.70;;;;;;;2.23;91.55;100171.19;5051390;28;20029;-65
2021/01/27 00:24:07;;;;;;;15.77;10.90;;;;;;;2.21;91.36;100167.81;5051230;28;20028;-65
2021/01/27 00:26:33;;;;;;;20.42;12.10;;;;;;;2.19;92.10;100164.38;5084013;28;20028;-65
2021/01/27 00:28:59;;;;;;;19.83;13.10;;;;;;;2.28;92.10;100185.03;5051545;28;20035;-65
2021/01/27 00:31:24;;;;;;;18.08;11.65;;;;;;;2.27;91.92;100180.69;5051756;28;20037;-65
2021/01/27 00:33:50;;;;;;;18.48;11.27;;;;;;;2.32;91.75;100186.56;5051675;28;20057;-65
2021/01/27 00:36:15;;;;;;;19.30;12.40;;;;;;;2.19;91.88;100158.22;5051529;28;20107;-65
2021/01/27 00:38:41;;;;;;;18.75;12.32;;;;;;;2.29;92.19;100170.84;5051294;28;20053;-65
2021/01/27 00:41:06;;;;;;;19.88;12.70;;;;;;;2.27;91.86;100161.31;5051204;28;20127;-65
2021/01/27 00:43:32;;;;;;;19.08;12.65;;;;;;;2.23;91.63;100157.13;5051381;28;20476;-65
2021/01/27 00:45:58;;;;;;;17.92;11.82;;;;;;;2.27;92.30;100171.91;5083526;28;20133;-65
2021/01/27 00:48:23;;;;;;;20.75;12.48;;;;;;;2.25;92.40;100174.63;5051444;28;20032;-65
2021/01/27 00:50:50;;;;;;;19.88;12.50;;;;;;;2.14;92.51;100153.22;5083474;28;20021;-65
2021/01/27 00:53:16;;;;;;;19.02;12.98;;;;;;;2.14;92.42;100147.06;5050948;28;20428;-65
2021/01/27 00:55:42;;;;;;;19.98;12.93;;;;;;;2.24;92.46;100154.41;5051056;28;20029;-65
2021/01/27 00:58:08;;;;;;;19.85;12.07;;;;;;;2.30;92.85;100169.06;5051071;28;20425;-65
2021/01/27 01:00:37;;;;;;;19.20;11.90;;;;;;;2.29;92.18;100176.16;5050905;28;20033;-65
2021/01/27 01:03:04;;;;;;;18.48;12.43;;;;;;;2.29;92.50;100172.66;5051114;28;20063;-65
2021/01/27 01:05:32;;;;;;;19.40;12.40;;;;;;;2.28;92.73;100173.59;5051043;28;20032;-65
2021/01/27 01:07:58;;;;;;;17.75;11.60;;;;;;;2.12;93.01;100138.34;5051432;28;20366;-65
2021/01/27 01:10:26;;;;;;;17.52;12.70;;;;;;;2.22;93.13;100153.63;5051041;28;20067;-65
2021/01/27 01:12:52;;;;;;;19.35;12.60;;;;;;;2.29;92.99;100170.03;5050884;28;20033;-65
2021/01/27 01:15:19;;;;;;;17.98;11.88;;;;;;;2.23;93.23;100155.31;5049562;28;20550;-65
2021/01/27 01:17:45;;;;;;;18.58;11.48;;;;;;;2.24;93.44;100145.59;5050718;28;20135;-65
2021/01/27 01:20:15;;;;;;;21.45;13.00;;;;;;;2.32;92.95;100152.16;5050975;28;20025;-65
2021/01/27 01:22:49;;;;;;;16.25;11.57;;;;;;;2.39;93.17;100161.44;5050573;28;20078;-66
2021/01/27 01:25:19;;;;;;;;;;;;;;;2.41;92.53;100157.88;5051190;28;20044;-65
2021/01/27 01:27:44;;;;;;;19.10;12.57;;;;;;;2.42;92.71;100166.56;5050413;28;19962;-65
2021/01/27 01:30:24;;;;;;;20.58;13.07;;;;;;;2.38;92.25;100158.06;5049354;28;20021;-65
2021/01/27 01:32:51;;;;;;;20.55;12.70;;;;;;;2.26;92.48;100134.00;5050363;28;20029;-65
2021/01/27 01:35:18;;;;;;;18.23;12.27;;;;;;;2.33;92.42;100153.88;5050529;28;20036;-65
2021/01/27 01:37:44;;;;;;;19.65;12.98;;;;;;;2.33;92.42;100147.75;5050256;28;20029;-65
2021/01/27 01:40:15;;;;;;;20.52;13.25;;;;;;;2.35;92.45;100156.41;5049721;28;20041;-65
2021/01/27 01:42:40;;;;;;;18.75;12.70;;;;;;;2.28;92.66;100140.06;5050341;28;20032;-65
2021/01/27 01:45:34;;;;;;;21.88;13.73;;;;;;;2.32;92.93;100152.16;5050423;28;20109;-65
2021/01/27 01:48:14;;;;;;;20.97;13.70;;;;;;;2.36;93.39;100161.63;5049239;28;20041;-65
2021/01/27 01:50:39;;;;;;;22.08;12.75;;;;;;;2.34;92.89;100160.88;5050216;28;20526;-65
2021/01/27 01:53:05;;;;;;;20.95;13.02;;;;;;;2.26;92.73;100147.22;5050340;28;20078;-65
2021/01/27 01:55:32;;;;;;;20.55;12.85;;;;;;;2.32;92.84;100149.53;5050287;28;20043;-65
2021/01/27 01:57:58;;;;;;;19.92;12.88;;;;;;;2.36;92.63;100164.28;5050176;28;20029;-65
2021/01/27 02:00:26;;;;;;;21.55;13.73;;;;;;;2.23;92.80;100139.44;5050354;28;20029;-65
2021/01/27 02:02:53;;;;;;;21.20;13.00;;;;;;;2.15;92.72;100131.13;5081867;28;20028;-65
2021/01/27 02:05:20;;;;;;;19.08;12.90;;;;;;;2.31;92.96;100162.84;5050270;28;20079;-65
2021/01/27 02:07:47;;;;;;;19.00;12.55;;;;;;;2.27;92.72;100159.53;5050253;28;20027;-65
2021/01/27 02:10:17;;;;;;;18.42;12.43;;;;;;;2.25;92.82;100165.81;5050054;28;20021;-65
2021/01/27 02:13:03;;;;;;;16.98;11.57;;;;;;;2.21;93.24;100174.88;5050078;28;20539;-65
2021/01/27 02:15:37;;;;;;;22.80;13.45;;;;;;;2.18;92.76;100169.75;5050234;28;20048;-65
2021/01/27 02:18:26;;;;;;;18.85;13.20;;;;;;;2.15;93.46;100169.94;5082347;28;20114;-65
2021/01/27 02:21:07;;;;;;;19.45;13.35;;;;;;;2.08;93.34;100163.28;5049618;28;20056;-65
2021/01/27 02:23:53;;;;;;;20.48;13.20;;;;;;;2.01;93.00;100162.78;5082264;28;20029;-65
2021/01/27 02:26:54;;;;;;;19.58;13.23;;;;;;;1.77;93.56;100132.38;5049954;28;20391;-65
2021/01/27 02:29:44;;;;;;;20.15;12.85;;;;;;;1.91;93.75;100158.91;5050004;28;20104;-66
2021/01/27 02:32:54;;;;;;;17.05;11.90;;;;;;;1.91;93.65;100164.19;5049886;28;20096;-66
2021/01/27 02:35:38;;;;;;;20.30;13.45;;;;;;;1.92;93.64;100170.34;5082141;28;20445;-65
2021/01/27 02:38:39;;;;;;;19.48;13.10;;;;;;;1.68;93.85;100135.53;5049932;28;20484;-65
2021/01/27 02:41:14;;;;;;;21.80;12.75;;;;;;;1.83;93.30;100169.06;5082428;28;20033;-65
2021/01/27 02:43:42;;;;;;;22.98;14.50;;;;;;;1.74;93.73;100164.28;5049602;28;20442;-65
2021/01/27 02:46:19;;;;;;;22.90;13.43;;;;;;;1.69;93.81;100162.81;5049733;28;20071;-65
2021/01/27 02:49:13;;;;;;;21.27;14.52;;;;;;;1.59;94.52;100167.78;5049829;28;20399;-65
2021/01/27 02:51:57;;;;;;;22.02;14.38;;;;;;;1.56;95.08;100165.28;5049710;28;20052;-65
2021/01/27 02:54:28;;;;;;;20.45;12.68;;;;;;;1.40;95.06;100151.19;5049960;28;20108;-66
2021/01/27 02:57:20;;;;;;;35.35;17.80;;;;;;;1.46;95.23;100161.44;5049503;28;20159;-65
2021/01/27 03:00:09;;;;;;;28.50;15.65;;;;;;;1.50;94.26;100178.81;5048362;28;20025;-65
2021/01/27 03:02:42;;;;;;;25.33;13.82;;;;;;;1.40;94.70;100171.47;5049274;28;20098;-65
2021/01/27 03:05:17;;;;;;;23.95;15.20;;;;;;;1.28;94.99;100159.75;5049698;28;20017;-65
2021/01/27 03:07:47;;;;;;;19.80;13.20;;;;;;;1.27;95.02;100162.47;5049537;28;20025;-65
2021/01/27 03:10:21;;;;;;;21.33;14.32;;;;;;;1.25;95.29;100165.19;5049521;28;20029;-65
2021/01/27 03:12:47;;;;;;;;;;;;;;;1.25;95.55;100172.25;5049756;28;20556;-65
2021/01/27 03:15:13;;;;;;;25.63;14.63;;;;;;;1.33;95.16;100163.03;5050572;28;20024;-65
2021/01/27 03:17:42;;;;;;;22.65;14.05;;;;;;;1.27;94.26;100155.41;5085115;28;20641;-65
2021/01/27 03:20:31;;;;;;;22.83;14.35;;;;;;;1.26;94.67;100172.16;5053027;28;20044;-65
2021/01/27 03:23:17;;;;;;;25.75;14.85;;;;;;;1.14;94.63;100157.00;5051242;28;20082;-65
2021/01/27 03:25:55;;;;;;;22.55;15.40;;;;;;;1.05;94.92;100153.94;5052894;28;20017;-65
2021/01/27 03:28:34;;;;;;;24.25;14.75;;;;;;;1.16;95.06;100173.59;5052904;28;20028;-65
2021/01/27 03:31:00;;;;;;;24.13;14.73;;;;;;;1.02;94.64;100154.13;5052977;28;20025;-65
2021/01/27 03:33:44;;;;;;;27.25;15.15;;;;;;;1.15;94.44;100185.09;5052808;28;20037;-65
2021/01/27 03:36:14;;;;;;;25.75;14.80;;;;;;;1.05;94.77;100177.72;5052768;28;20021;-65
2021/01/27 03:38:50;;;;;;;23.58;14.65;;;;;;;1.02;95.32;100176.09;5052599;28;20557;-65
2021/01/27 03:41:16;;;;;;;22.38;14.85;;;;;;;1.04;95.76;100173.38;5052582;28;20045;-65
2021/01/27 03:44:07;;;;;;;26.08;15.05;;;;;;;1.04;95.49;100181.31;5052521;28;20037;-65
2021/01/27 03:46:45;;;;;;;23.92;15.32;;;;;;;1.05;95.38;100178.59;5051606;28;20029;-65
2021/01/27 03:49:35;;;;;;;22.95;15.52;;;;;;;1.07;95.40;100189.06;5052771;28;20502;-65
2021/01/27 03:52:30;;;;;;;25.83;16.35;;;;;;;1.04;95.26;100174.25;5052709;28;20017;-65
2021/01/27 03:55:17;;;;;;;27.40;14.85;;;;;;;1.06;94.88;100182.09;5053767;28;20045;-65
2021/01/27 03:57:52;;;;;;;23.13;15.75;;;;;;;0.91;94.95;100157.31;5072899;28;20032;-65
2021/01/27 04:00:18;;;;;;;23.80;14.77;;;;;;;1.04;94.36;100186.59;5032382;28;20028;-65
2021/01/27 04:02:44;;;;;;;23.00;15.50;;;;;;;0.92;94.31;100182.78;5064143;28;20488;-65
2021/01/27 04:05:10;;;;;;;25.33;16.08;;;;;;;0.73;94.77;100170.56;5032430;28;20040;-64
2021/01/27 04:07:35;;;;;;;25.45;15.48;;;;;;;0.68;95.05;100157.59;5032055;28;20542;-64
2021/01/27 04:10:01;;;;;;;24.90;16.38;;;;;;;0.74;95.08;100169.66;5033001;28;20045;-64
2021/01/27 04:12:26;;;;;;;25.98;17.15;;;;;;;0.80;95.11;100183.41;5030813;28;20048;-64
2021/01/27 04:14:52;;;;;;;24.38;15.50;;;;;;;0.75;94.99;100181.94;5032080;28;20406;-64
2021/01/27 04:17:29;;;;;;;26.67;15.32;;;;;;;0.82;94.55;100194.75;5031940;28;20472;-64
2021/01/27 04:19:57;;;;;;;24.63;15.70;;;;;;;0.77;94.60;100191.47;5030627;28;20032;-64
2021/01/27 04:22:23;;;;;;;31.58;16.30;;;;;;;0.80;94.69;100199.22;5063949;28;20507;-64
2021/01/27 04:24:49;;;;;;;29.20;16.75;;;;;;;0.67;94.43;100182.31;5031832;28;20025;-64
2021/01/27 04:27:15;;;;;;;27.45;15.55;;;;;;;0.72;94.20;100188.22;5031379;28;20040;-64
2021/01/27 04:29:41;;;;;;;27.80;16.20;;;;;;;0.70;93.89;100197.97;5031703;28;20044;-64
2021/01/27 04:32:06;;;;;;;27.75;16.42;;;;;;;0.67;93.45;100195.50;5031886;28;20060;-64
2021/01/27 04:34:34;;;;;;;23.40;14.95;;;;;;;0.57;93.49;100199.53;5031888;28;20021;-64
2021/01/27 04:37:00;;;;;;;23.88;15.05;;;;;;;0.53;93.30;100190.06;5031673;28;20460;-64
2021/01/27 04:39:26;;;;;;;24.02;15.52;;;;;;;0.47;93.46;100193.00;5031375;28;20049;-64
2021/01/27 04:41:53;;;;;;;24.33;14.82;;;;;;;0.50;92.78;100200.75;5063469;28;20048;-64
2021/01/27 04:44:19;;;;;;;24.65;14.80;;;;;;;0.44;92.57;100203.69;5031708;28;20507;-64
2021/01/27 04:47:13;;;;;;;22.35;14.52;;;;;;;0.43;92.72;100206.41;5031446;28;20052;-64
2021/01/27 04:49:44;;;;;;;24.80;15.68;;;;;;;0.21;93.07;100174.94;5032886;28;20033;-64
2021/01/27 04:52:17;;;;;;;25.05;15.38;;;;;;;0.35;93.08;100188.28;5031321;28;20591;-64
2021/01/27 04:54:50;;;;;;;27.98;16.15;;;;;;;0.49;91.39;100199.06;5031243;28;20035;-64
2021/01/27 04:57:39;;;;;;;26.77;15.50;;;;;;;0.41;89.85;100200.31;5031045;28;20527;-64
2021/01/27 05:00:10;;;;;;;27.73;15.95;;;;;;;0.38;90.52;100196.06;5031434;28;20029;-64
2021/01/27 05:03:02;;;;;;;27.15;16.33;;;;;;;0.26;90.85;100185.25;5031252;28;20030;-64
2021/01/27 05:05:30;;;;;;;30.15;16.35;;;;;;;0.24;91.10;100187.97;5062842;28;20502;-64
2021/01/27 05:08:39;;;;;;;27.95;15.60;;;;;;;0.24;91.07;100206.44;5030910;28;20056;-64
2021/01/27 05:11:07;;;;;;;26.88;15.20;;;;;;;0.25;91.02;100192.31;5030998;28;20037;-64
2021/01/27 05:13:38;;;;;;;30.60;16.65;;;;;;;0.26;90.45;100204.59;5030774;28;20103;-64
2021/01/27 05:16:25;;;;;;;28.80;16.48;;;;;;;0.26;90.46;100198.44;5030771;28;20049;-64
2021/01/27 05:18:54;;;;;;;25.90;16.17;;;;;;;0.16;90.63;100179.56;5029361;28;20062;-64
2021/01/27 05:21:25;;;;;;;25.10;15.23;;;;;;;0.29;89.93;100196.50;5030807;28;20454;-64
2021/01/27 05:23:51;;;;;;;25.50;14.57;;;;;;;0.27;90.01;100194.88;5030670;28;20108;-64
2021/01/27 05:26:20;;;;;;;27.33;15.63;;;;;;;0.25;89.42;100181.75;5046851;28;20112;-64
2021/01/27 05:28:56;;;;;;;29.23;16.30;;;;;;;0.27;89.70;100195.75;5049421;28;20043;-64
2021/01/27 05:31:21;;;;;;;23.40;14.35;;;;;;;0.32;89.39;100196.34;5047486;28;20009;-64
2021/01/27 05:33:49;;;;;;;27.15;15.20;;;;;;;0.24;89.26;100187.97;5049363;28;20471;-64
2021/01/27 05:36:21;;;;;;;27.77;15.25;;;;;;;0.27;89.75;100200.16;5049561;28;20380;-64
2021/01/27 05:38:47;;;;;;;24.65;14.65;;;;;;;0.22;89.77;100189.81;5048716;28;20491;-64
2021/01/27 05:41:28;;;;;;;26.77;14.52;;;;;;;0.14;89.35;100177.94;5049069;28;20033;-64
2021/01/27 05:44:04;;;;;;;25.40;15.32;;;;;;;0.26;89.36;100199.31;5050391;28;20041;-64
2021/01/27 05:46:32;;;;;;;24.10;13.93;;;;;;;0.21;89.43;100195.16;5050398;28;20292;-64
2021/01/27 05:48:59;;;;;;;26.20;15.23;;;;;;;0.13;89.37;100186.78;5048920;28;20483;-64
2021/01/27 05:51:27;;;;;;;29.35;16.67;;;;;;;0.19;89.78;100197.88;5050239;28;20021;-63
2021/01/27 05:53:53;;;;;;;32.08;16.95;;;;;;;0.15;89.96;100193.69;5050270;28;20051;-64
2021/01/27 05:56:21;;;;;;;27.80;15.52;;;;;;;0.01;90.07;100188.22;5050155;28;20495;-64
2021/01/27 05:59:06;;;;;;;29.45;16.60;;;;;;;0.06;90.20;100204.66;5050325;28;20031;-64
2021/01/27 06:01:41;;;;;;;;;;;;;;;0.00;90.34;100199.69;5049077;28;20033;-64
2021/01/27 06:04:10;;;;;;;30.95;17.50;;;;;;;-0.06;90.83;100203.44;5050021;28;19996;-64
2021/01/27 06:06:39;;;;;;;33.03;18.67;;;;;;;-0.08;91.29;100204.47;5050194;28;20033;-64
2021/01/27 06:09:06;;;;;;;31.75;17.98;;;;;;;-0.13;91.29;100193.25;5050262;28;20029;-64
2021/01/27 06:11:33;;;;;;;37.10;19.50;;;;;;;-0.11;91.87;100209.88;5048824;28;20480;-64
2021/01/27 06:14:12;;;;;;;34.92;18.45;;;;;;;-0.15;92.11;100203.03;5050432;28;20043;-64
2021/01/27 06:16:45;;;;;;;35.92;19.63;;;;;;;-0.06;92.17;100215.78;5050154;28;20033;-64
2021/01/27 06:19:25;;;;;;;31.20;18.65;;;;;;;-0.12;91.92;100216.06;5050302;28;20025;-64
2021/01/27 06:22:23;;;;;;;30.15;17.98;;;;;;;-0.10;92.32;100222.09;5050079;28;20061;-64
2021/01/27 06:25:02;;;;;;;37.15;19.45;;;;;;;-0.03;92.53;100223.56;5049910;28;20013;-65
2021/01/27 06:27:43;;;;;;;33.15;18.58;;;;;;;0.03;92.52;100229.38;5048785;28;20025;-64
2021/01/27 06:30:18;;;;;;;32.35;18.40;;;;;;;0.04;91.96;100233.72;5045483;28;20028;-65
2021/01/27 06:33:07;;;;;;;32.10;18.55;;;;;;;0.00;92.16;100226.06;5046441;28;20060;-64
2021/01/27 06:35:45;;;;;;;36.55;20.77;;;;;;;0.04;92.10;100224.97;5035992;28;20029;-64
2021/01/27 06:38:36;;;;;;;41.75;20.77;;;;;;;0.00;91.88;100210.25;5037550;28;20021;-64
2021/01/27 06:41:19;;;;;;;34.83;20.35;;;;;;;0.15;91.84;100229.72;5049514;28;20031;-64
2021/01/27 06:44:01;;;;;;;37.58;20.95;;;;;;;0.15;91.77;100225.31;5082298;28;20110;-64
2021/01/27 06:47:00;;;;;;;32.75;19.38;;;;;;;0.20;91.67;100235.66;5049798;28;20112;-64
2021/01/27 06:50:03;;;;;;;34.08;18.70;;;;;;;0.22;90.93;100234.66;5050544;28;20451;-64
2021/01/27 06:52:49;;;;;;;40.47;21.13;;;;;;;0.19;91.20;100232.16;5085867;28;20049;-64
2021/01/27 06:55:19;;;;;;;36.92;19.90;;;;;;;0.06;91.57;100206.47;5053531;28;20047;-64
2021/01/27 06:58:05;;;;;;;38.45;21.25;;;;;;;0.17;90.92;100226.13;5053252;28;20116;-64
2021/01/27 07:00:48;;;;;;;34.20;19.55;;;;;;;0.19;91.25;100234.78;5085586;28;20069;-63
2021/01/27 07:03:33;;;;;;;51.45;26.27;;;;;;;0.17;91.84;100231.38;5053510;28;20029;-64
2021/01/27 07:06:33;;;;;;;147.23;54.03;;;;;;;0.20;92.38;100231.25;5053240;28;20468;-64
2021/01/27 07:09:23;;;;;;;85.80;38.67;;;;;;;0.26;92.45;100230.09;5085465;28;20029;-65
2021/01/27 07:12:18;;;;;;;50.60;27.65;;;;;;;0.37;91.77;100248.88;5053201;28;20056;-64
2021/01/27 07:14:49;;;;;;;49.70;26.40;;;;;;;0.36;91.88;100249.81;5053231;28;20044;-64
2021/01/27 07:17:17;;;;;;;66.70;34.10;;;;;;;0.34;92.00;100243.75;5053217;28;20360;-64
2021/01/27 07:20:10;;;;;;;53.53;29.20;;;;;;;0.38;91.88;100240.91;5053028;28;20029;-64
2021/01/27 07:22:45;;;;;;;49.47;27.48;;;;;;;0.37;92.01;100217.25;5053195;28;20033;-64
2021/01/27 07:26:08;;;;;;;42.13;25.50;;;;;;;0.54;91.57;100241.03;5085578;28;20021;-64
2021/01/27 07:28:33;;;;;;;39.70;21.75;;;;;;;0.61;91.02;100245.09;5070613;28;20530;-64
2021/01/27 07:31:12;;;;;;;38.38;21.73;;;;;;;0.63;90.81;100236.16;5070412;28;20059;-64
2021/01/27 07:33:46;;;;;;;35.67;21.30;;;;;;;0.51;90.62;100207.72;5051156;28;20033;-65
2021/01/27 07:36:26;;;;;;;;;;;;;;;0.70;90.99;100241.97;5052163;28;20025;-64
2021/01/27 07:38:56;;;;;;;33.25;19.23;;;;;;;0.72;90.88;100237.50;5033670;28;19944;-64
2021/01/27 07:41:32;;;;;;;34.20;19.88;;;;;;;0.78;91.04;100240.69;5033643;28;20033;-64
2021/01/27 07:44:03;;;;;;;38.25;21.17;;;;;;;0.75;91.06;100221.50;5033751;28;20072;-64
2021/01/27 07:46:51;;;;;;;35.60;20.75;;;;;;;0.84;90.92;100239.53;5033747;28;20029;-64
2021/01/27 07:49:25;;;;;;;34.88;20.25;;;;;;;0.73;90.20;100200.47;5033642;28;20107;-64
2021/01/27 07:51:56;;;;;;;;;;;;;;;1.00;90.09;100233.41;5034171;28;20059;-64
2021/01/27 07:54:29;;;;;;;32.00;18.63;;;;;;;1.02;89.43;100214.84;5033405;28;20027;-64
2021/01/27 07:57:17;;;;;;;33.85;18.90;;;;;;;1.06;89.22;100211.97;5033561;28;20056;-64
2021/01/27 07:59:55;;;;;;;31.25;17.83;;;;;;;1.26;88.54;100232.09;5032378;28;20461;-64
2021/01/27 08:02:27;;;;;;;31.10;18.67;;;;;;;1.38;87.80;100239.34;5032499;28;20048;-64
2021/01/27 08:04:59;;;;;;;34.60;19.13;;;;;;;1.48;86.76;100227.41;5033322;28;20029;-64
2021/01/27 08:07:34;;;;;;;34.83;18.63;;;;;;;1.40;85.82;100209.31;5031815;28;20029;-64
2021/01/27 08:10:28;;;;;;;34.65;19.60;;;;;;;1.58;85.95;100232.09;5033171;28;20022;-64
2021/01/27 08:13:01;;;;;;;32.20;18.92;;;;;;;1.50;85.50;100207.88;5031977;28;20103;-64
2021/01/27 08:15:27;;;;;;;31.33;17.58;;;;;;;1.71;85.32;100227.88;5032622;28;20121;-64
2021/01/27 08:17:55;;;;;;;32.42;19.17;;;;;;;1.78;84.56;100236.34;5031078;28;20136;-64
2021/01/27 08:20:24;;;;;;;35.10;19.90;;;;;;;1.82;83.95;100237.88;5030991;28;20396;-64
2021/01/27 08:22:55;;;;;;;32.17;18.45;;;;;;;1.88;83.58;100243.72;5032285;28;20159;-64
2021/01/27 08:25:52;;;;;;;34.45;19.88;;;;;;;1.95;81.71;100246.88;5032412;28;20033;-64
2021/01/27 08:28:32;;;;;;;35.65;19.65;;;;;;;1.94;81.55;100235.44;5031723;28;20476;-64
2021/01/27 08:31:12;;;;;;;32.72;18.52;;;;;;;2.10;80.89;100254.81;5032790;28;20049;-64
2021/01/27 08:33:47;;;;;;;32.65;19.67;;;;;;;2.09;81.42;100247.84;5032711;28;20029;-64
2021/01/27 08:36:31;;;;;;;31.83;19.73;;;;;;;2.14;81.24;100250.22;5032903;28;20033;-64
2021/01/27 08:38:56;;;;;;;35.38;19.88;;;;;;;2.21;80.39;100256.88;5032710;28;20053;-64
2021/01/27 08:41:53;;;;;;;29.50;18.00;;;;;;;2.24;80.10;100257.59;5032546;28;20481;-64
2021/01/27 08:44:18;;;;;;;33.67;20.38;;;;;;;2.30;79.15;100251.94;5032454;28;20037;-64
2021/01/27 08:46:54;;;;;;;32.47;18.52;;;;;;;2.30;79.44;100259.88;5031395;28;20036;-64
2021/01/27 08:49:52;;;;;;;38.50;22.08;;;;;;;2.34;79.70;100255.28;5032538;28;20041;-64
2021/01/27 08:52:18;;;;;;;45.88;23.67;;;;;;;2.43;78.19;100260.91;5032493;28;20025;-64
2021/01/27 08:54:47;;;;;;;33.25;20.40;;;;;;;2.45;78.41;100254.69;5032360;28;20034;-64
2021/01/27 08:57:24;;;;;;;32.70;20.85;;;;;;;2.49;78.52;100253.56;5031246;28;20033;-65
2021/01/27 09:00:00;;;;;;;31.95;20.50;;;;;;;2.46;77.63;100251.09;5032180;28;20112;-64
2021/01/27 09:02:48;;;;;;;35.20;20.65;;;;;;;2.58;77.34;100266.28;5030960;28;20025;-65
2021/01/27 09:05:19;;;;;;;31.65;18.95;;;;;;;2.60;77.33;100259.09;5032421;28;20473;-64
2021/01/27 09:07:58;;;;;;;34.75;19.70;;;;;;;2.58;76.82;100247.75;5032171;28;20104;-64
2021/01/27 09:10:36;;;;;;;32.60;19.98;;;;;;;2.72;76.01;100263.72;5030906;28;20025;-65
2021/01/27 09:13:27;;;;;;;35.70;20.23;;;;;;;2.69;76.58;100256.81;5063886;28;20049;-64
2021/01/27 09:15:58;;;;;;;30.40;18.33;;;;;;;2.77;76.69;100251.09;5031896;28;20037;-64
2021/01/27 09:18:24;;;;;;;33.42;19.73;;;;;;;2.81;76.52;100247.31;5032084;28;20041;-64
2021/01/27 09:20:50;;;;;;;33.08;20.08;;;;;;;2.82;76.56;100255.16;5031767;28;20076;-64
2021/01/27 09:23:18;;;;;;;32.25;19.42;;;;;;;2.90;76.46;100262.69;5031986;28;20123;-64
2021/01/27 09:25:50;;;;;;;34.65;20.33;;;;;;;2.82;76.65;100241.94;5031683;28;20025;-64
2021/01/27 09:28:25;;;;;;;34.75;20.10;;;;;;;3.00;76.50;100255.91;5031787;28;20029;-64
2021/01/27 09:30:52;;;;;;;30.75;19.77;;;;;;;2.96;76.71;100241.97;5030526;28;20021;-64
2021/01/27 09:33:35;;;;;;;32.95;19.65;;;;;;;3.13;76.49;100262.19;5031790;28;20071;-64
2021/01/27 09:36:20;;;;;;;38.03;21.25;;;;;;;3.18;76.27;100260.97;5031498;28;20104;-64
2021/01/27 09:38:49;;;;;;;;;;;;;;;3.25;75.93;100259.66;5032280;28;20393;-64
2021/01/27 09:41:22;;;;;;;32.40;18.92;;;;;;;3.29;75.61;100252.41;5031657;28;20358;-64
2021/01/27 09:43:48;;;;;;;38.67;21.83;;;;;;;3.24;75.74;100235.91;5031545;28;20099;-64
2021/01/27 09:46:29;;;;;;;40.78;24.35;;;;;;;3.46;75.51;100250.47;5031549;28;20493;-64
2021/01/27 09:49:14;;;;;;;33.00;19.77;;;;;;;3.55;74.09;100249.03;5031472;28;20115;-65
2021/01/27 09:51:51;;;;;;;34.47;20.92;;;;;;;3.55;73.75;100238.44;5031725;28;20028;-64
2021/01/27 09:54:19;;;;;;;33.65;20.70;;;;;;;3.51;73.70;100227.16;5031101;28;20534;-64
2021/01/27 09:56:49;;;;;;;31.35;19.70;;;;;;;3.60;73.88;100239.00;5030986;28;20083;-64
2021/01/27 09:59:17;;;;;;;32.13;19.73;;;;;;;3.71;73.49;100234.75;5031154;28;20095;-64
2021/01/27 10:01:48;;;;;;;34.38;20.48;;;;;;;3.75;73.74;100230.13;5031501;28;20057;-64
2021/01/27 10:04:33;;;;;;;31.52;19.63;;;;;;;3.86;73.14;100240.91;5031446;28;20122;-64
2021/01/27 10:07:05;;;;;;;35.67;20.05;;;;;;;3.90;72.47;100226.53;5029835;28;20033;-64
2021/01/27 10:09:51;;;;;;;32.42;20.05;;;;;;;3.84;72.84;100213.66;5031151;28;20034;-64
2021/01/27 10:12:25;;;;;;;32.83;19.52;;;;;;;4.01;71.50;100221.41;5031136;28;20487;-64
2021/01/27 10:15:00;;;;;;;32.97;19.58;;;;;;;3.92;71.53;100204.25;5031203;28;20037;-64
2021/01/27 10:17:30;;;;;;;34.45;21.02;;;;;;;3.95;71.84;100211.16;5031218;28;20026;-64
2021/01/27 10:20:20;;;;;;;36.28;20.73;;;;;;;4.08;72.10;100230.66;5030969;28;20452;-64
2021/01/27 10:22:55;;;;;;;32.70;19.98;;;;;;;4.07;72.17;100228.97;5031210;28;20029;-64
2021/01/27 10:25:35;;;;;;;34.97;21.00;;;;;;;4.04;72.22;100221.22;5034224;28;20032;-64
2021/01/27 10:28:06;;;;;;;32.58;19.65;;;;;;;4.09;72.40;100222.63;5034868;28;20029;-64
2021/01/27 10:30:54;;;;;;;32.05;19.90;;;;;;;4.22;71.42;100228.84;5034942;28;20104;-64
2021/01/27 10:33:40;;;;;;;32.35;19.38;;;;;;;4.25;71.57;100214.53;5034695;28;20025;-64
2021/01/27 10:36:31;;;;;;;32.42;19.70;;;;;;;4.34;71.75;100221.91;5033332;28;20052;-64
2021/01/27 10:39:13;;;;;;;31.83;19.75;;;;;;;4.40;71.80;100213.56;5033196;28;20123;-64
2021/01/27 10:41:38;;;;;;;28.88;17.67;;;;;;;4.45;71.22;100219.44;5035497;28;20411;-64
2021/01/27 10:44:24;;;;;;;27.60;17.33;;;;;;;4.46;70.44;100215.81;5034722;28;20037;-64
2021/01/27 10:46:57;;;;;;;25.95;15.80;;;;;;;4.51;68.86;100221.69;5034578;28;20028;-64
2021/01/27 10:49:23;;;;;;;23.25;14.77;;;;;;;4.45;67.34;100214.13;5034654;28;20417;-64
2021/01/27 10:51:48;;;;;;;24.45;14.32;;;;;;;4.40;66.45;100187.88;5034472;28;20018;-64
2021/01/27 10:54:19;;;;;;;21.80;13.27;;;;;;;4.42;66.63;100193.91;5034800;28;20412;-64
2021/01/27 10:56:45;;;;;;;25.13;14.27;;;;;;;4.46;65.95;100198.06;5034524;28;20040;-65
2021/01/27 10:59:10;;;;;;;25.05;15.63;;;;;;;4.44;65.77;100181.41;5034447;28;20384;-64
2021/01/27 11:01:36;;;;;;;22.70;13.45;;;;;;;4.57;64.40;100190.28;5034232;28;20424;-64
2021/01/27 11:04:01;;;;;;;21.63;13.60;;;;;;;4.64;64.70;100201.34;5034265;28;20041;-64
2021/01/27 11:06:27;;;;;;;19.40;12.27;;;;;;;4.67;65.14;100193.16;5034306;28;20025;-64
2021/01/27 11:08:53;;;;;;;25.00;13.82;;;;;;;4.70;64.76;100196.50;5034186;28;20029;-64
2021/01/27 11:11:18;;;;;;;18.30;11.73;;;;;;;4.63;65.07;100181.06;5034245;28;20082;-65
2021/01/27 11:13:44;;;;;;;20.63;13.15;;;;;;;4.86;64.29;100204.28;5034478;28;20037;-63
2021/01/27 11:16:10;;;;;;;19.10;12.65;;;;;;;4.92;63.44;100201.22;5034024;28;20029;-63
2021/01/27 11:18:37;;;;;;;24.35;13.23;;;;;;;4.89;63.25;100193.47;5032599;28;20029;-62
2021/01/27 11:21:04;;;;;;;23.80;13.70;;;;;;;4.97;62.62;100193.81;5034032;28;20029;-62
2021/01/27 11:23:30;;;;;;;18.38;12.27;;;;;;;4.93;62.96;100189.63;5034330;28;20104;-64
2021/01/27 11:25:55;;;;;;;20.48;12.23;;;;;;;4.95;63.10;100189.53;5033953;28;20148;-63
2021/01/27 11:28:23;;;;;;;20.45;12.68;;;;;;;4.98;62.43;100182.22;5033664;28;20475;-63
2021/01/27 11:30:49;;;;;;;18.15;11.60;;;;;;;4.98;62.03;100187.53;5033361;28;20384;-64
2021/01/27 11:33:18;;;;;;;17.88;11.85;;;;;;;4.95;61.54;100177.13;5033669;28;20445;-64
2021/01/27 11:35:45;;;;;;;17.70;11.68;;;;;;;4.95;62.18;100185.09;5031318;28;20167;-65
2021/01/27 11:38:11;;;;;;;17.05;11.18;;;;;;;4.94;62.30;100186.06;5044195;28;20471;-64
2021/01/27 11:40:36;;;;;;;18.90;12.05;;;;;;;5.00;61.91;100182.94;5052337;28;20045;-65
2021/01/27 11:43:02;;;;;;;18.08;10.80;;;;;;;4.99;62.41;100186.56;5049925;28;20498;-62
2021/01/27 11:45:28;;;;;;;16.17;10.65;;;;;;;4.89;62.12;100168.69;5051330;28;20036;-63
2021/01/27 11:47:55;;;;;;;18.45;11.40;;;;;;;4.81;61.80;100163.91;5047084;28;20029;-63
2021/01/27 11:50:25;;;;;;;17.38;11.40;;;;;;;4.96;61.87;100168.16;5031404;28;20087;-62
2021/01/27 11:52:51;;;;;;;20.75;12.23;;;;;;;4.94;61.95;100169.25;5032049;28;20041;-62